sensor_id;sensor_type;location;lat;lon;timestamp;pressure;altitude;pressure_sealevel;temperature;humidity
38716;BME280;24833;49.324;8.694;2022-09-24T00:01:36;99526.69;;;14.10;72.14
38716;BME280;24833;49.324;8.694;2022-09-24T00:04:09;99533.13;;;14.09;71.91
38716;BME280;24833;49.324;8.694;2022-09-24T00:06:47;99532.06;;;14.10;71.58
38716;BME280;24833;49.324;8.694;2022-09-24T00:09:17;99528.34;;;14.11;72.28
38716;BME280;24833;49.324;8.694;2022-09-24T00:11:45;99521.13;;;14.11;71.98
38716;BME280;24833;49.324;8.694;2022-09-24T00:14:13;99533.28;;;14.14;72.22
38716;BME280;24833;49.324;8.694;2022-09-24T00:16:42;99528.94;;;14.13;71.96
38716;BME280;24833;49.324;8.694;2022-09-24T00:19:12;99520.06;;;14.12;72.32
38716;BME280;24833;49.324;8.694;2022-09-24T00:21:41;99522.53;;;14.14;71.95
38716;BME280;24833;49.324;8.694;2022-09-24T00:24:16;99521.72;;;14.13;71.47
38716;BME280;24833;49.324;8.694;2022-09-24T00:27:03;99518.78;;;14.15;72.02
38716;BME280;24833;49.324;8.694;2022-09-24T00:29:31;99515.28;;;14.14;72.04
38716;BME280;24833;49.324;8.694;2022-09-24T00:32:02;99515.06;;;14.16;72.20
38716;BME280;24833;49.324;8.694;2022-09-24T00:34:30;99515.06;;;14.16;72.16
38716;BME280;24833;49.324;8.694;2022-09-24T00:36:57;99507.00;;;14.16;72.06
38716;BME280;24833;49.324;8.694;2022-09-24T00:39:25;99505.13;;;14.16;71.82
38716;BME280;24833;49.324;8.694;2022-09-24T00:41:52;99488.19;;;14.16;72.19
38716;BME280;24833;49.324;8.694;2022-09-24T00:50:31;99486.81;;;14.13;71.23
38716;BME280;24833;49.324;8.694;2022-09-24T00:53:10;99478.75;;;14.13;71.75
38716;BME280;24833;49.324;8.694;2022-09-24T00:55:42;99475.00;;;14.14;71.83
38716;BME280;24833;49.324;8.694;2022-09-24T00:58:11;99471.50;;;14.14;71.95
38716;BME280;24833;49.324;8.694;2022-09-24T01:00:41;99471.50;;;14.14;72.16
38716;BME280;24833;49.324;8.694;2022-09-24T01:03:22;99472.56;;;14.13;71.78
38716;BME280;24833;49.324;8.694;2022-09-24T01:05:50;99465.31;;;14.13;72.15
38716;BME280;24833;49.324;8.694;2022-09-24T01:08:18;99463.44;;;14.14;72.22
38716;BME280;24833;49.324;8.694;2022-09-24T01:14:29;99460.19;;;14.12;71.20
38716;BME280;24833;49.324;8.694;2022-09-24T01:20:24;99458.50;;;14.11;71.50
38716;BME280;24833;49.324;8.694;2022-09-24T01:32:45;99438.06;;;13.98;71.50
38716;BME280;24833;49.324;8.694;2022-09-24T01:38:22;99445.13;;;13.93;71.45
38716;BME280;24833;49.324;8.694;2022-09-24T01:40:52;99441.84;;;13.90;71.90
38716;BME280;24833;49.324;8.694;2022-09-24T01:43:23;99436.94;;;13.87;72.19
38716;BME280;24833;49.324;8.694;2022-09-24T01:45:51;99433.66;;;13.85;71.66
38716;BME280;24833;49.324;8.694;2022-09-24T01:48:18;99441.09;;;13.83;72.06
38716;BME280;24833;49.324;8.694;2022-09-24T01:51:00;99444.25;;;13.80;71.57
38716;BME280;24833;49.324;8.694;2022-09-24T01:53:34;99443.03;;;13.76;71.62
38716;BME280;24833;49.324;8.694;2022-09-24T01:56:10;99435.47;;;13.73;71.43
38716;BME280;24833;49.324;8.694;2022-09-24T01:59:01;99437.97;;;13.68;71.21
38716;BME280;24833;49.324;8.694;2022-09-24T02:01:46;99432.47;;;13.63;71.36
38716;BME280;24833;49.324;8.694;2022-09-24T02:04:18;99424.88;;;13.60;71.59
38716;BME280;24833;49.324;8.694;2022-09-24T02:07:05;99419.59;;;13.53;70.85
38716;BME280;24833;49.324;8.694;2022-09-24T02:09:40;99415.91;;;13.48;70.56
38716;BME280;24833;49.324;8.694;2022-09-24T02:12:23;99408.53;;;13.43;71.20
38716;BME280;24833;49.324;8.694;2022-09-24T02:17:41;99417.69;;;13.35;71.66
38716;BME280;24833;49.324;8.694;2022-09-24T02:20:17;99409.50;;;13.30;71.05
38716;BME280;24833;49.324;8.694;2022-09-24T02:22:47;99409.38;;;13.25;71.82
38716;BME280;24833;49.324;8.694;2022-09-24T02:25:21;99410.00;;;13.21;71.63
38716;BME280;24833;49.324;8.694;2022-09-24T02:27:51;99410.63;;;13.16;71.92
38716;BME280;24833;49.324;8.694;2022-09-24T02:30:18;99416.47;;;13.13;71.77
38716;BME280;24833;49.324;8.694;2022-09-24T02:32:46;99416.28;;;13.08;71.65
38716;BME280;24833;49.324;8.694;2022-09-24T02:35:15;99424.16;;;13.03;71.60
38716;BME280;24833;49.324;8.694;2022-09-24T02:37:43;99426.25;;;13.01;71.57
38716;BME280;24833;49.324;8.694;2022-09-24T02:40:12;99421.53;;;12.96;71.31
38716;BME280;24833;49.324;8.694;2022-09-24T02:42:41;99417.91;;;12.91;71.46
38716;BME280;24833;49.324;8.694;2022-09-24T02:45:09;99418.56;;;12.86;71.45
38716;BME280;24833;49.324;8.694;2022-09-24T02:47:37;99421.88;;;12.81;71.68
38716;BME280;24833;49.324;8.694;2022-09-24T02:50:05;99409.13;;;12.77;71.54
38716;BME280;24833;49.324;8.694;2022-09-24T02:52:32;99412.50;;;12.72;71.44
38716;BME280;24833;49.324;8.694;2022-09-24T02:54:59;99405.91;;;12.68;71.33
38716;BME280;24833;49.324;8.694;2022-09-24T02:57:26;99419.13;;;12.63;71.68
38716;BME280;24833;49.324;8.694;2022-09-24T02:59:53;99412.59;;;12.59;71.25
38716;BME280;24833;49.324;8.694;2022-09-24T03:02:20;99416.72;;;12.55;71.35
38716;BME280;24833;49.324;8.694;2022-09-24T03:04:48;99419.03;;;12.51;71.35
38716;BME280;24833;49.324;8.694;2022-09-24T03:07:15;99418.63;;;12.48;71.27
38716;BME280;24833;49.324;8.694;2022-09-24T03:09:42;99422.81;;;12.44;71.65
38716;BME280;24833;49.324;8.694;2022-09-24T03:12:09;99425.06;;;12.40;71.53
38716;BME280;24833;49.324;8.694;2022-09-24T03:14:36;99422.63;;;12.39;71.76
38716;BME280;24833;49.324;8.694;2022-09-24T03:17:04;99415.00;;;12.36;71.62
38716;BME280;24833;49.324;8.694;2022-09-24T03:19:31;99416.50;;;12.32;71.46
38716;BME280;24833;49.324;8.694;2022-09-24T03:21:58;99419.59;;;12.28;71.27
38716;BME280;24833;49.324;8.694;2022-09-24T03:24:25;99419.00;;;12.26;71.29
38716;BME280;24833;49.324;8.694;2022-09-24T03:26:52;99406.63;;;12.25;71.59
38716;BME280;24833;49.324;8.694;2022-09-24T03:29:19;99411.38;;;12.23;71.88
38716;BME280;24833;49.324;8.694;2022-09-24T03:32:06;99394.72;;;12.21;71.43
38716;BME280;24833;49.324;8.694;2022-09-24T03:34:33;99390.41;;;12.20;71.65
38716;BME280;24833;49.324;8.694;2022-09-24T03:37:00;99386.09;;;12.19;71.61
38716;BME280;24833;49.324;8.694;2022-09-24T03:39:26;99394.94;;;12.20;72.21
38716;BME280;24833;49.324;8.694;2022-09-24T03:41:53;99394.34;;;12.18;72.10
38716;BME280;24833;49.324;8.694;2022-09-24T03:44:20;99382.81;;;12.17;71.87
38716;BME280;24833;49.324;8.694;2022-09-24T03:46:47;99372.09;;;12.17;71.91
38716;BME280;24833;49.324;8.694;2022-09-24T03:49:16;99379.28;;;12.17;71.82
38716;BME280;24833;49.324;8.694;2022-09-24T03:51:43;99372.28;;;12.16;71.71
38716;BME280;24833;49.324;8.694;2022-09-24T03:54:11;99371.47;;;12.15;71.88
38716;BME280;24833;49.324;8.694;2022-09-24T03:56:38;99369.84;;;12.14;72.00
38716;BME280;24833;49.324;8.694;2022-09-24T03:59:05;99369.63;;;12.16;72.57
38716;BME280;24833;49.324;8.694;2022-09-24T04:01:32;99375.78;;;12.16;72.38
38716;BME280;24833;49.324;8.694;2022-09-24T04:04:01;99368.81;;;12.15;72.30
38716;BME280;24833;49.324;8.694;2022-09-24T04:06:29;99380.31;;;12.16;72.78
38716;BME280;24833;49.324;8.694;2022-09-24T04:08:58;99385.91;;;12.14;72.63
38716;BME280;24833;49.324;8.694;2022-09-24T04:11:26;99391.03;;;12.16;72.68
38716;BME280;24833;49.324;8.694;2022-09-24T04:13:53;99380.53;;;12.14;72.78
38716;BME280;24833;49.324;8.694;2022-09-24T04:16:20;99378.69;;;12.15;72.41
38716;BME280;24833;49.324;8.694;2022-09-24T04:18:47;99373.34;;;12.15;72.17
38716;BME280;24833;49.324;8.694;2022-09-24T04:21:14;99376.22;;;12.13;72.52
38716;BME280;24833;49.324;8.694;2022-09-24T04:23:41;99374.59;;;12.12;72.67
38716;BME280;24833;49.324;8.694;2022-09-24T04:26:08;99374.81;;;12.11;72.53
38716;BME280;24833;49.324;8.694;2022-09-24T04:28:36;99363.25;;;12.10;72.53
38716;BME280;24833;49.324;8.694;2022-09-24T04:31:03;99358.94;;;12.09;72.47
38716;BME280;24833;49.324;8.694;2022-09-24T04:33:30;99356.50;;;12.08;72.49
38716;BME280;24833;49.324;8.694;2022-09-24T04:35:57;99355.09;;;12.05;72.08
38716;BME280;24833;49.324;8.694;2022-09-24T04:38:24;99368.47;;;12.05;72.28
38716;BME280;24833;49.324;8.694;2022-09-24T04:40:51;99365.97;;;12.04;72.57
38716;BME280;24833;49.324;8.694;2022-09-24T04:43:18;99377.53;;;12.04;72.41
38716;BME280;24833;49.324;8.694;2022-09-24T04:45:45;99368.88;;;12.02;72.17
38716;BME280;24833;49.324;8.694;2022-09-24T04:48:13;99364.56;;;12.01;72.33
38716;BME280;24833;49.324;8.694;2022-09-24T04:50:40;99363.97;;;11.99;72.56
38716;BME280;24833;49.324;8.694;2022-09-24T04:53:12;99360.47;;;11.98;72.34
38716;BME280;24833;49.324;8.694;2022-09-24T04:55:39;99350.81;;;11.97;72.49
38716;BME280;24833;49.324;8.694;2022-09-24T04:58:08;99354.72;;;11.95;72.01
38716;BME280;24833;49.324;8.694;2022-09-24T05:00:35;99366.47;;;11.94;72.27
38716;BME280;24833;49.324;8.694;2022-09-24T05:03:02;99366.47;;;11.94;72.29
38716;BME280;24833;49.324;8.694;2022-09-24T05:05:31;99366.91;;;11.91;72.11
38716;BME280;24833;49.324;8.694;2022-09-24T05:07:59;99366.91;;;11.91;72.52
38716;BME280;24833;49.324;8.694;2022-09-24T05:10:28;99372.44;;;11.89;72.15
38716;BME280;24833;49.324;8.694;2022-09-24T05:12:56;99376.97;;;11.89;72.44
38716;BME280;24833;49.324;8.694;2022-09-24T05:15:23;99377.19;;;11.87;72.55
38716;BME280;24833;49.324;8.694;2022-09-24T05:17:49;99376.38;;;11.87;72.36
38716;BME280;24833;49.324;8.694;2022-09-24T05:20:16;99373.72;;;11.87;72.51
38716;BME280;24833;49.324;8.694;2022-09-24T05:22:46;99376.38;;;11.87;72.78
38716;BME280;24833;49.324;8.694;2022-09-24T05:25:15;99376.38;;;11.87;72.34
38716;BME280;24833;49.324;8.694;2022-09-24T05:27:51;99377.41;;;11.86;72.52
38716;BME280;24833;49.324;8.694;2022-09-24T05:30:21;99384.41;;;11.87;72.65
38716;BME280;24833;49.324;8.694;2022-09-24T05:32:48;99383.81;;;11.85;72.44
38716;BME280;24833;49.324;8.694;2022-09-24T05:35:20;99388.34;;;11.84;72.59
38716;BME280;24833;49.324;8.694;2022-09-24T05:37:47;99391.84;;;11.85;72.50
38716;BME280;24833;49.324;8.694;2022-09-24T05:40:15;99398.00;;;11.85;72.96
38716;BME280;24833;49.324;8.694;2022-09-24T05:43:02;99408.94;;;11.84;72.81
38716;BME280;24833;49.324;8.694;2022-09-24T05:45:30;99392.03;;;11.83;72.81
38716;BME280;24833;49.324;8.694;2022-09-24T05:47:57;99400.91;;;11.84;72.99
38716;BME280;24833;49.324;8.694;2022-09-24T05:50:26;99397.38;;;11.83;72.66
38716;BME280;24833;49.324;8.694;2022-09-24T05:52:53;99399.22;;;11.83;72.90
38716;BME280;24833;49.324;8.694;2022-09-24T05:55:20;99397.38;;;11.83;72.83
38716;BME280;24833;49.324;8.694;2022-09-24T05:57:47;99404.59;;;11.83;73.08
38716;BME280;24833;49.324;8.694;2022-09-24T06:00:15;99406.25;;;11.84;73.38
38716;BME280;24833;49.324;8.694;2022-09-24T06:02:42;99406.84;;;11.86;73.45
38716;BME280;24833;49.324;8.694;2022-09-24T06:05:10;99410.13;;;11.88;73.15
38716;BME280;24833;49.324;8.694;2022-09-24T06:07:37;99410.53;;;11.91;73.16
38716;BME280;24833;49.324;8.694;2022-09-24T06:10:05;99412.16;;;11.92;73.98
38716;BME280;24833;49.324;8.694;2022-09-24T06:12:36;99414.63;;;11.94;73.82
38716;BME280;24833;49.324;8.694;2022-09-24T06:15:03;99416.25;;;11.95;73.40
38716;BME280;24833;49.324;8.694;2022-09-24T06:17:30;99407.19;;;11.96;73.42
38716;BME280;24833;49.324;8.694;2022-09-24T06:19:58;99410.69;;;11.96;73.81
38716;BME280;24833;49.324;8.694;2022-09-24T06:22:26;99416.91;;;11.97;74.07
38716;BME280;24833;49.324;8.694;2022-09-24T06:24:55;99413.19;;;11.98;73.83
38716;BME280;24833;49.324;8.694;2022-09-24T06:27:22;99411.31;;;11.98;73.79
38716;BME280;24833;49.324;8.694;2022-09-24T06:29:49;99419.13;;;12.00;73.81
38716;BME280;24833;49.324;8.694;2022-09-24T06:32:16;99418.09;;;12.01;73.84
38716;BME280;24833;49.324;8.694;2022-09-24T06:34:45;99424.03;;;12.03;74.21
38716;BME280;24833;49.324;8.694;2022-09-24T06:37:13;99425.28;;;12.07;74.24
38716;BME280;24833;49.324;8.694;2022-09-24T06:39:40;99430.19;;;12.10;74.01
38716;BME280;24833;49.324;8.694;2022-09-24T06:42:07;99425.81;;;12.16;74.52
38716;BME280;24833;49.324;8.694;2022-09-24T06:44:34;99415.31;;;12.21;74.46
38716;BME280;24833;49.324;8.694;2022-09-24T06:47:01;99417.94;;;12.27;74.71
38716;BME280;24833;49.324;8.694;2022-09-24T06:49:29;99426.75;;;12.35;74.98
38716;BME280;24833;49.324;8.694;2022-09-24T06:52:00;99418.69;;;12.41;74.59
38716;BME280;24833;49.324;8.694;2022-09-24T06:54:30;99427.88;;;12.52;75.31
38716;BME280;24833;49.324;8.694;2022-09-24T06:56:58;99426.56;;;12.61;75.83
38716;BME280;24833;49.324;8.694;2022-09-24T06:59:25;99429.59;;;12.71;76.15
38716;BME280;24833;49.324;8.694;2022-09-24T07:01:52;99430.38;;;12.78;75.52
38716;BME280;24833;49.324;8.694;2022-09-24T07:04:19;99423.09;;;12.86;75.81
38716;BME280;24833;49.324;8.694;2022-09-24T07:06:46;99416.03;;;12.91;75.95
38716;BME280;24833;49.324;8.694;2022-09-24T07:09:32;99423.41;;;12.96;75.49
38716;BME280;24833;49.324;8.694;2022-09-24T07:12:05;99428.34;;;12.99;75.26
38716;BME280;24833;49.324;8.694;2022-09-24T07:14:36;99430.34;;;13.03;75.96
38716;BME280;24833;49.324;8.694;2022-09-24T07:17:03;99429.69;;;13.08;76.07
38716;BME280;24833;49.324;8.694;2022-09-24T07:19:30;99425.31;;;13.14;75.70
38716;BME280;24833;49.324;8.694;2022-09-24T07:21:57;99434.78;;;13.16;75.79
38716;BME280;24833;49.324;8.694;2022-09-24T07:24:24;99445.06;;;13.19;75.69
38716;BME280;24833;49.324;8.694;2022-09-24T07:26:51;99448.38;;;13.21;75.73
38716;BME280;24833;49.324;8.694;2022-09-24T07:29:18;99437.00;;;13.26;75.93
38716;BME280;24833;49.324;8.694;2022-09-24T07:31:45;99434.69;;;13.29;75.69
38716;BME280;24833;49.324;8.694;2022-09-24T07:34:12;99426.78;;;13.34;76.11
38716;BME280;24833;49.324;8.694;2022-09-24T07:36:40;99431.28;;;13.41;76.04
38716;BME280;24833;49.324;8.694;2022-09-24T07:39:08;99432.03;;;13.48;76.21
38716;BME280;24833;49.324;8.694;2022-09-24T07:41:35;99422.84;;;13.55;76.33
38716;BME280;24833;49.324;8.694;2022-09-24T07:44:08;99426.03;;;13.64;76.27
38716;BME280;24833;49.324;8.694;2022-09-24T07:46:35;99430.31;;;13.72;76.69
38716;BME280;24833;49.324;8.694;2022-09-24T07:49:02;99429.19;;;13.79;76.78
38716;BME280;24833;49.324;8.694;2022-09-24T07:51:30;99423.50;;;13.87;76.56
38716;BME280;24833;49.324;8.694;2022-09-24T07:53:57;99434.75;;;13.96;76.75
38716;BME280;24833;49.324;8.694;2022-09-24T07:56:24;99433.63;;;14.04;76.59
38716;BME280;24833;49.324;8.694;2022-09-24T07:58:52;99437.66;;;14.13;77.12
38716;BME280;24833;49.324;8.694;2022-09-24T08:01:19;99438.13;;;14.22;77.12
38716;BME280;24833;49.324;8.694;2022-09-24T08:03:47;99434.31;;;14.29;76.83
38716;BME280;24833;49.324;8.694;2022-09-24T08:06:14;99454.44;;;14.38;77.00
38716;BME280;24833;49.324;8.694;2022-09-24T08:08:41;99458.47;;;14.48;77.17
38716;BME280;24833;49.324;8.694;2022-09-24T08:11:11;99457.69;;;14.59;77.09
38716;BME280;24833;49.324;8.694;2022-09-24T08:13:42;99468.13;;;14.67;77.42
38716;BME280;24833;49.324;8.694;2022-09-24T08:16:11;99470.47;;;14.75;77.24
38716;BME280;24833;49.324;8.694;2022-09-24T08:18:38;99467.91;;;14.80;76.83
38716;BME280;24833;49.324;8.694;2022-09-24T08:21:10;99481.13;;;14.82;76.53
38716;BME280;24833;49.324;8.694;2022-09-24T08:23:38;99465.00;;;14.82;76.39
38716;BME280;24833;49.324;8.694;2022-09-24T08:26:06;99470.03;;;14.78;76.29
38716;BME280;24833;49.324;8.694;2022-09-24T08:28:33;99461.34;;;14.76;76.25
38716;BME280;24833;49.324;8.694;2022-09-24T08:31:04;99459.28;;;14.78;76.81
38716;BME280;24833;49.324;8.694;2022-09-24T08:33:35;99457.16;;;14.80;76.82
38716;BME280;24833;49.324;8.694;2022-09-24T08:36:08;99460.44;;;14.82;76.75
38716;BME280;24833;49.324;8.694;2022-09-24T08:38:36;99462.44;;;14.87;76.95
38716;BME280;24833;49.324;8.694;2022-09-24T08:41:24;99461.97;;;14.90;76.96
38716;BME280;24833;49.324;8.694;2022-09-24T08:44:01;99467.47;;;14.95;77.15
38716;BME280;24833;49.324;8.694;2022-09-24T08:46:43;99462.22;;;15.00;76.85
38716;BME280;24833;49.324;8.694;2022-09-24T08:49:43;99467.94;;;15.04;76.71
38716;BME280;24833;49.324;8.694;2022-09-24T08:52:27;99453.00;;;15.08;76.79
38716;BME280;24833;49.324;8.694;2022-09-24T08:55:00;99460.81;;;15.09;76.81
38716;BME280;24833;49.324;8.694;2022-09-24T08:57:46;99458.25;;;15.14;77.16
38716;BME280;24833;49.324;8.694;2022-09-24T09:00:15;99458.16;;;15.21;77.25
38716;BME280;24833;49.324;8.694;2022-09-24T09:03:03;99459.66;;;15.29;77.43
38716;BME280;24833;49.324;8.694;2022-09-24T09:06:15;99468.44;;;15.36;77.29
38716;BME280;24833;49.324;8.694;2022-09-24T09:09:03;99466.09;;;15.39;77.17
38716;BME280;24833;49.324;8.694;2022-09-24T09:11:36;99466.44;;;15.43;76.98
38716;BME280;24833;49.324;8.694;2022-09-24T09:14:44;99471.13;;;15.47;76.94
38716;BME280;24833;49.324;8.694;2022-09-24T09:19:57;99473.69;;;15.54;77.07
38716;BME280;24833;49.324;8.694;2022-09-24T09:22:35;99467.00;;;15.57;76.87
38716;BME280;24833;49.324;8.694;2022-09-24T09:25:25;99470.88;;;15.61;77.08
38716;BME280;24833;49.324;8.694;2022-09-24T09:28:13;99469.41;;;15.65;77.01
38716;BME280;24833;49.324;8.694;2022-09-24T09:37:13;99483.06;;;15.87;77.29
38716;BME280;24833;49.324;8.694;2022-09-24T09:43:01;99479.03;;;16.01;77.29
38716;BME280;24833;49.324;8.694;2022-09-24T09:48:14;99479.84;;;16.13;77.42
38716;BME280;24833;49.324;8.694;2022-09-24T09:50:52;99481.78;;;16.18;77.81
38716;BME280;24833;49.324;8.694;2022-09-24T09:53:27;99478.13;;;16.24;77.81
38716;BME280;24833;49.324;8.694;2022-09-24T09:56:04;99471.78;;;16.30;77.81
38716;BME280;24833;49.324;8.694;2022-09-24T09:58:38;99477.84;;;16.37;77.69
38716;BME280;24833;49.324;8.694;2022-09-24T10:01:13;99476.66;;;16.45;77.68
38716;BME280;24833;49.324;8.694;2022-09-24T10:06:27;99481.53;;;16.59;77.67
38716;BME280;24833;49.324;8.694;2022-09-24T10:09:16;99467.78;;;16.61;77.06
38716;BME280;24833;49.324;8.694;2022-09-24T10:11:46;99462.97;;;16.63;77.31
38716;BME280;24833;49.324;8.694;2022-09-24T10:14:15;99466.00;;;16.67;77.38
38716;BME280;24833;49.324;8.694;2022-09-24T10:16:53;99470.47;;;16.73;77.53
38716;BME280;24833;49.324;8.694;2022-09-24T10:19:23;99466.44;;;16.75;77.16
38716;BME280;24833;49.324;8.694;2022-09-24T10:21:54;99471.59;;;16.77;76.85
38716;BME280;24833;49.324;8.694;2022-09-24T10:24:25;99467.38;;;16.81;77.11
38716;BME280;24833;49.324;8.694;2022-09-24T10:26:53;99458.22;;;16.82;77.26
38716;BME280;24833;49.324;8.694;2022-09-24T10:29:26;99457.13;;;16.83;77.39
38716;BME280;24833;49.324;8.694;2022-09-24T10:32:25;99460.66;;;16.83;77.00
38716;BME280;24833;49.324;8.694;2022-09-24T10:35:00;99463.69;;;16.87;76.95
38716;BME280;24833;49.324;8.694;2022-09-24T10:37:29;99455.34;;;16.88;76.87
38716;BME280;24833;49.324;8.694;2022-09-24T10:40:02;99467.53;;;16.91;76.56
38716;BME280;24833;49.324;8.694;2022-09-24T10:42:34;99456.72;;;16.91;76.99
38716;BME280;24833;49.324;8.694;2022-09-24T10:45:08;99459.44;;;16.91;76.75
38716;BME280;24833;49.324;8.694;2022-09-24T10:53:55;99459.22;;;16.93;76.97
38716;BME280;24833;49.324;8.694;2022-09-24T10:56:45;99450.03;;;16.94;76.92
38716;BME280;24833;49.324;8.694;2022-09-24T11:13:47;99452.13;;;17.42;78.22
38716;BME280;24833;49.324;8.694;2022-09-24T11:16:50;99454.47;;;17.55;78.42
38716;BME280;24833;49.324;8.694;2022-09-24T11:19:56;99451.16;;;17.70;78.69
38716;BME280;24833;49.324;8.694;2022-09-24T11:22:50;99447.56;;;17.81;78.33
38716;BME280;24833;49.324;8.694;2022-09-24T11:28:56;99451.53;;;17.95;78.19
38716;BME280;24833;49.324;8.694;2022-09-24T11:31:46;99442.59;;;17.95;77.77
38716;BME280;24833;49.324;8.694;2022-09-24T11:37:45;99432.94;;;17.99;77.15
38716;BME280;24833;49.324;8.694;2022-09-24T11:55:24;99430.47;;;17.76;76.66
38716;BME280;24833;49.324;8.694;2022-09-24T11:58:28;99430.97;;;17.73;76.27
38716;BME280;24833;49.324;8.694;2022-09-24T12:01:08;99428.19;;;17.67;76.33
38716;BME280;24833;49.324;8.694;2022-09-24T12:04:10;99427.03;;;17.63;76.56
38716;BME280;24833;49.324;8.694;2022-09-24T12:06:57;99428.66;;;17.64;76.97
38716;BME280;24833;49.324;8.694;2022-09-24T12:09:58;99419.25;;;17.67;77.23
38716;BME280;24833;49.324;8.694;2022-09-24T12:12:39;99412.78;;;17.68;77.13
38716;BME280;24833;49.324;8.694;2022-09-24T12:15:22;99409.13;;;17.74;77.44
38716;BME280;24833;49.324;8.694;2022-09-24T12:17:55;99402.72;;;17.80;77.35
38716;BME280;24833;49.324;8.694;2022-09-24T12:20:30;99410.63;;;17.87;77.75
38716;BME280;24833;49.324;8.694;2022-09-24T12:23:10;99408.22;;;17.90;77.51
38716;BME280;24833;49.324;8.694;2022-09-24T12:25:43;99414.44;;;17.91;77.15
38716;BME280;24833;49.324;8.694;2022-09-24T12:28:15;99407.97;;;17.92;77.35
38716;BME280;24833;49.324;8.694;2022-09-24T12:31:28;99405.84;;;17.94;77.61
38716;BME280;24833;49.324;8.694;2022-09-24T12:34:25;99401.50;;;17.93;76.89
38716;BME280;24833;49.324;8.694;2022-09-24T12:37:09;99404.03;;;18.00;77.55
38716;BME280;24833;49.324;8.694;2022-09-24T12:39:52;99394.06;;;18.05;77.66
38716;BME280;24833;49.324;8.694;2022-09-24T12:42:22;99388.78;;;18.15;77.98
38716;BME280;24833;49.324;8.694;2022-09-24T12:44:55;99390.75;;;18.25;78.22
38716;BME280;24833;49.324;8.694;2022-09-24T12:47:28;99384.44;;;18.41;78.44
38716;BME280;24833;49.324;8.694;2022-09-24T12:50:03;99387.00;;;18.58;78.43
38716;BME280;24833;49.324;8.694;2022-09-24T12:52:40;99387.19;;;18.73;78.20
38716;BME280;24833;49.324;8.694;2022-09-24T12:55:34;99394.59;;;18.88;78.27
38716;BME280;24833;49.324;8.694;2022-09-24T12:58:05;99398.97;;;18.94;77.51
38716;BME280;24833;49.324;8.694;2022-09-24T13:00:44;99397.94;;;19.00;77.20
38716;BME280;24833;49.324;8.694;2022-09-24T13:03:36;99393.34;;;19.01;77.28
38716;BME280;24833;49.324;8.694;2022-09-24T13:06:35;99394.16;;;19.01;76.54
38716;BME280;24833;49.324;8.694;2022-09-24T13:09:36;99383.59;;;19.00;76.63
38716;BME280;24833;49.324;8.694;2022-09-24T13:12:22;99378.13;;;18.95;76.74
38716;BME280;24833;49.324;8.694;2022-09-24T13:15:05;99372.72;;;18.95;76.46
38716;BME280;24833;49.324;8.694;2022-09-24T13:17:35;99381.09;;;18.93;76.62
38716;BME280;24833;49.324;8.694;2022-09-24T13:20:05;99383.56;;;18.95;76.85
38716;BME280;24833;49.324;8.694;2022-09-24T13:22:35;99389.47;;;18.92;76.64
38716;BME280;24833;49.324;8.694;2022-09-24T13:27:39;99376.19;;;18.90;75.83
38716;BME280;24833;49.324;8.694;2022-09-24T13:30:19;99371.88;;;18.89;76.03
38716;BME280;24833;49.324;8.694;2022-09-24T13:32:57;99371.00;;;18.84;76.14
38716;BME280;24833;49.324;8.694;2022-09-24T13:35:38;99369.91;;;18.80;76.04
38716;BME280;24833;49.324;8.694;2022-09-24T13:38:23;99375.31;;;18.80;76.07
38716;BME280;24833;49.324;8.694;2022-09-24T13:41:19;99378.53;;;18.76;75.67
38716;BME280;24833;49.324;8.694;2022-09-24T13:44:00;99377.97;;;18.74;75.51
38716;BME280;24833;49.324;8.694;2022-09-24T13:46:30;99380.38;;;18.71;75.35
38716;BME280;24833;49.324;8.694;2022-09-24T13:49:05;99376.03;;;18.70;75.82
38716;BME280;24833;49.324;8.694;2022-09-24T13:51:37;99375.22;;;18.69;75.76
38716;BME280;24833;49.324;8.694;2022-09-24T13:54:20;99375.75;;;18.66;75.89
38716;BME280;24833;49.324;8.694;2022-09-24T13:57:13;99367.03;;;18.64;75.76
38716;BME280;24833;49.324;8.694;2022-09-24T13:59:45;99361.34;;;18.61;75.17
38716;BME280;24833;49.324;8.694;2022-09-24T14:02:26;99359.47;;;18.61;76.06
38716;BME280;24833;49.324;8.694;2022-09-24T14:04:56;99365.13;;;18.60;75.71
38716;BME280;24833;49.324;8.694;2022-09-24T14:07:26;99362.16;;;18.61;76.02
38716;BME280;24833;49.324;8.694;2022-09-24T14:10:11;99360.91;;;18.69;76.39
38716;BME280;24833;49.324;8.694;2022-09-24T14:12:39;99369.34;;;18.77;76.31
38716;BME280;24833;49.324;8.694;2022-09-24T14:15:14;99361.81;;;18.85;76.31
38716;BME280;24833;49.324;8.694;2022-09-24T14:17:42;99351.03;;;18.90;76.02
38716;BME280;24833;49.324;8.694;2022-09-24T14:20:12;99350.75;;;18.91;75.99
38716;BME280;24833;49.324;8.694;2022-09-24T14:22:42;99352.16;;;18.94;75.45
38716;BME280;24833;49.324;8.694;2022-09-24T14:25:19;99347.56;;;18.94;75.62
38716;BME280;24833;49.324;8.694;2022-09-24T14:27:49;99340.28;;;19.00;76.16
38716;BME280;24833;49.324;8.694;2022-09-24T14:30:23;99341.69;;;19.08;76.26
38716;BME280;24833;49.324;8.694;2022-09-24T14:32:55;99340.41;;;19.20;76.87
38716;BME280;24833;49.324;8.694;2022-09-24T14:35:34;99339.34;;;19.31;76.93
38716;BME280;24833;49.324;8.694;2022-09-24T14:38:25;99337.56;;;19.47;77.29
38716;BME280;24833;49.324;8.694;2022-09-24T14:41:01;99340.00;;;19.54;76.74
38716;BME280;24833;49.324;8.694;2022-09-24T14:43:55;99340.63;;;19.61;76.63
38716;BME280;24833;49.324;8.694;2022-09-24T14:46:33;99341.69;;;19.60;76.35
38716;BME280;24833;49.324;8.694;2022-09-24T14:51:58;99334.38;;;19.61;76.01
38716;BME280;24833;49.324;8.694;2022-09-24T14:54:37;99331.34;;;19.57;75.37
38716;BME280;24833;49.324;8.694;2022-09-24T14:59:45;99329.41;;;19.42;74.81
38716;BME280;24833;49.324;8.694;2022-09-24T15:05:01;99317.69;;;19.31;74.92
38716;BME280;24833;49.324;8.694;2022-09-24T15:07:33;99327.16;;;19.29;74.70
38716;BME280;24833;49.324;8.694;2022-09-24T15:10:04;99322.00;;;19.22;74.43
38716;BME280;24833;49.324;8.694;2022-09-24T15:12:37;99319.56;;;19.21;75.38